sensor_id;sensor_type;location;lat;lon;timestamp;pressure;altitude;pressure_sealevel;temperature;humidity
3812;BME280;1921;49.368;11.068;2022-11-14T00:00:36;97763.00;;;1.85;100.00
3812;BME280;1921;49.368;11.068;2022-11-14T00:03:04;97785.78;;;2.01;100.00
3812;BME280;1921;49.368;11.068;2022-11-14T00:05:31;97775.97;;;1.95;100.00
3812;BME280;1921;49.368;11.068;2022-11-14T00:07:58;97734.06;;;1.72;100.00
3812;BME280;1921;49.368;11.068;2022-11-14T00:10:24;97746.22;;;1.81;100.00
3812;BME280;1921;49.368;11.068;2022-11-14T00:12:49;97734.88;;;1.73;100.00
3812;BME280;1921;49.368;11.068;2022-11-14T00:15:16;97766.88;;;1.91;100.00
3812;BME280;1921;49.368;11.068;2022-11-14T00:17:41;97804.75;;;2.00;100.00
3812;BME280;1921;49.368;11.068;2022-11-14T00:20:10;97749.72;;;1.80;100.00
3812;BME280;1921;49.368;11.068;2022-11-14T00:22:36;97697.38;;;1.59;100.00
3812;BME280;1921;49.368;11.068;2022-11-14T00:25:02;97630.31;;;1.07;100.00
3812;BME280;1921;49.368;11.068;2022-11-14T00:27:28;97720.72;;;1.78;100.00
3812;BME280;1921;49.368;11.068;2022-11-14T00:29:53;97735.66;;;1.84;100.00
3812;BME280;1921;49.368;11.068;2022-11-14T00:32:19;97731.34;;;1.85;100.00
3812;BME280;1921;49.368;11.068;2022-11-14T00:34:47;97704.41;;;1.57;100.00
3812;BME280;1921;49.368;11.068;2022-11-14T00:37:13;97608.59;;;0.78;100.00
3812;BME280;1921;49.368;11.068;2022-11-14T00:39:39;97757.78;;;1.53;100.00
3812;BME280;1921;49.368;11.068;2022-11-14T00:42:05;97690.03;;;1.10;100.00
3812;BME280;1921;49.368;11.068;2022-11-14T00:44:30;97763.63;;;1.55;100.00
3812;BME280;1921;49.368;11.068;2022-11-14T00:46:56;97628.75;;;0.71;100.00
3812;BME280;1921;49.368;11.068;2022-11-14T00:49:22;97734.09;;;1.39;100.00
3812;BME280;1921;49.368;11.068;2022-11-14T00:51:48;97760.22;;;1.55;100.00
3812;BME280;1921;49.368;11.068;2022-11-14T00:54:13;97748.56;;;1.51;100.00
3812;BME280;1921;49.368;11.068;2022-11-14T00:56:39;97693.44;;;1.10;100.00
3812;BME280;1921;49.368;11.068;2022-11-14T00:59:05;97668.81;;;0.96;100.00
3812;BME280;1921;49.368;11.068;2022-11-14T01:01:31;97662.59;;;0.99;100.00
3812;BME280;1921;49.368;11.068;2022-11-14T01:03:56;97750.06;;;1.53;100.00
3812;BME280;1921;49.368;11.068;2022-11-14T01:06:22;97672.66;;;1.02;100.00
3812;BME280;1921;49.368;11.068;2022-11-14T01:08:51;97697.16;;;1.17;100.00
3812;BME280;1921;49.368;11.068;2022-11-14T01:11:20;97725.56;;;1.38;100.00
3812;BME280;1921;49.368;11.068;2022-11-14T01:13:46;97675.00;;;1.16;100.00
3812;BME280;1921;49.368;11.068;2022-11-14T01:16:12;97768.41;;;1.71;100.00
3812;BME280;1921;49.368;11.068;2022-11-14T01:18:38;97621.78;;;0.85;100.00
3812;BME280;1921;49.368;11.068;2022-11-14T01:21:10;97711.19;;;1.35;100.00
3812;BME280;1921;49.368;11.068;2022-11-14T01:23:37;97729.63;;;1.41;100.00
3812;BME280;1921;49.368;11.068;2022-11-14T01:26:10;97706.84;;;1.36;100.00
3812;BME280;1921;49.368;11.068;2022-11-14T01:28:36;97701.03;;;1.23;100.00
3812;BME280;1921;49.368;11.068;2022-11-14T01:31:22;97734.31;;;1.47;100.00
3812;BME280;1921;49.368;11.068;2022-11-14T01:33:49;97674.97;;;1.05;100.00
3812;BME280;1921;49.368;11.068;2022-11-14T01:36:16;97706.16;;;1.23;100.00
3812;BME280;1921;49.368;11.068;2022-11-14T01:38:42;97670.44;;;0.97;100.00
3812;BME280;1921;49.368;11.068;2022-11-14T01:41:10;97710.84;;;1.29;100.00
3812;BME280;1921;49.368;11.068;2022-11-14T01:43:39;97665.53;;;0.94;100.00
3812;BME280;1921;49.368;11.068;2022-11-14T01:46:09;97724.03;;;1.24;100.00
3812;BME280;1921;49.368;11.068;2022-11-14T01:48:48;97739.69;;;1.32;100.00
3812;BME280;1921;49.368;11.068;2022-11-14T01:51:41;97667.03;;;0.86;100.00
3812;BME280;1921;49.368;11.068;2022-11-14T01:54:17;97669.84;;;0.83;100.00
3812;BME280;1921;49.368;11.068;2022-11-14T01:56:51;97653.63;;;0.71;100.00
3812;BME280;1921;49.368;11.068;2022-11-14T01:59:30;97663.63;;;0.74;100.00
3812;BME280;1921;49.368;11.068;2022-11-14T02:02:02;97671.25;;;0.75;100.00
3812;BME280;1921;49.368;11.068;2022-11-14T02:04:34;97678.94;;;0.87;100.00
3812;BME280;1921;49.368;11.068;2022-11-14T02:07:03;97635.78;;;0.69;100.00
3812;BME280;1921;49.368;11.068;2022-11-14T02:09:35;97718.75;;;1.03;100.00
3812;BME280;1921;49.368;11.068;2022-11-14T02:12:05;97696.00;;;0.88;100.00
3812;BME280;1921;49.368;11.068;2022-11-14T02:14:32;97698.78;;;0.96;100.00
3812;BME280;1921;49.368;11.068;2022-11-14T02:16:58;97671.59;;;0.82;100.00
3812;BME280;1921;49.368;11.068;2022-11-14T02:19:24;97679.88;;;0.86;100.00
3812;BME280;1921;49.368;11.068;2022-11-14T02:21:50;97694.00;;;0.91;100.00
3812;BME280;1921;49.368;11.068;2022-11-14T02:24:16;97657.22;;;0.79;100.00
3812;BME280;1921;49.368;11.068;2022-11-14T02:26:41;97642.28;;;0.73;100.00
3812;BME280;1921;49.368;11.068;2022-11-14T02:29:09;97680.56;;;0.99;100.00
3812;BME280;1921;49.368;11.068;2022-11-14T02:31:35;97651.06;;;0.82;100.00
3812;BME280;1921;49.368;11.068;2022-11-14T02:34:01;97659.41;;;0.62;100.00
3812;BME280;1921;49.368;11.068;2022-11-14T02:36:27;97653.94;;;0.66;100.00
3812;BME280;1921;49.368;11.068;2022-11-14T02:38:53;97694.72;;;0.93;100.00
3812;BME280;1921;49.368;11.068;2022-11-14T02:41:18;97703.78;;;0.75;100.00
3812;BME280;1921;49.368;11.068;2022-11-14T02:43:44;97672.44;;;0.12;100.00
3812;BME280;1921;49.368;11.068;2022-11-14T02:46:10;97628.66;;;-0.09;100.00
3812;BME280;1921;49.368;11.068;2022-11-14T02:48:36;97632.91;;;0.04;100.00
3812;BME280;1921;49.368;11.068;2022-11-14T02:51:02;97652.34;;;0.19;100.00
3812;BME280;1921;49.368;11.068;2022-11-14T02:53:27;97674.59;;;0.30;100.00
3812;BME280;1921;49.368;11.068;2022-11-14T02:55:53;97696.97;;;0.51;100.00
3812;BME280;1921;49.368;11.068;2022-11-14T02:58:19;97686.81;;;0.50;100.00
3812;BME280;1921;49.368;11.068;2022-11-14T03:00:44;97710.88;;;0.71;100.00
3812;BME280;1921;49.368;11.068;2022-11-14T03:03:10;97690.13;;;0.74;100.00
3812;BME280;1921;49.368;11.068;2022-11-14T03:05:36;97686.28;;;0.69;100.00
3812;BME280;1921;49.368;11.068;2022-11-14T03:08:02;97700.06;;;0.90;100.00
3812;BME280;1921;49.368;11.068;2022-11-14T03:10:28;97647.53;;;0.61;100.00
3812;BME280;1921;49.368;11.068;2022-11-14T03:12:54;97640.53;;;0.63;100.00
3812;BME280;1921;49.368;11.068;2022-11-14T03:15:20;97654.88;;;0.65;100.00
3812;BME280;1921;49.368;11.068;2022-11-14T03:17:46;97703.94;;;0.96;100.00
3812;BME280;1921;49.368;11.068;2022-11-14T03:20:12;97684.78;;;0.89;100.00
3812;BME280;1921;49.368;11.068;2022-11-14T03:22:38;97705.09;;;1.03;100.00
3812;BME280;1921;49.368;11.068;2022-11-14T03:25:05;97656.75;;;0.86;100.00
3812;BME280;1921;49.368;11.068;2022-11-14T03:27:30;97660.06;;;0.88;100.00
3812;BME280;1921;49.368;11.068;2022-11-14T03:29:56;97677.22;;;1.10;100.00
3812;BME280;1921;49.368;11.068;2022-11-14T03:32:22;97608.84;;;0.75;100.00
3812;BME280;1921;49.368;11.068;2022-11-14T03:34:48;97658.63;;;1.17;100.00
3812;BME280;1921;49.368;11.068;2022-11-14T03:37:13;97657.22;;;1.47;100.00
3812;BME280;1921;49.368;11.068;2022-11-14T03:39:39;97646.69;;;1.61;100.00
3812;BME280;1921;49.368;11.068;2022-11-14T03:42:05;97663.47;;;1.87;100.00
3812;BME280;1921;49.368;11.068;2022-11-14T03:44:30;97650.13;;;1.94;100.00
3812;BME280;1921;49.368;11.068;2022-11-14T03:46:56;97616.06;;;1.69;100.00
3812;BME280;1921;49.368;11.068;2022-11-14T03:49:22;97634.09;;;1.90;100.00
3812;BME280;1921;49.368;11.068;2022-11-14T03:51:48;97694.38;;;2.29;100.00
3812;BME280;1921;49.368;11.068;2022-11-14T03:54:13;97696.97;;;2.29;100.00
3812;BME280;1921;49.368;11.068;2022-11-14T03:56:39;97644.47;;;2.00;100.00
3812;BME280;1921;49.368;11.068;2022-11-14T03:59:05;97659.63;;;2.14;100.00
3812;BME280;1921;49.368;11.068;2022-11-14T04:01:30;97623.31;;;1.96;100.00
3812;BME280;1921;49.368;11.068;2022-11-14T04:03:56;97653.84;;;2.22;100.00
3812;BME280;1921;49.368;11.068;2022-11-14T04:06:22;97704.09;;;2.58;100.00
3812;BME280;1921;49.368;11.068;2022-11-14T04:08:48;97665.84;;;2.32;100.00
3812;BME280;1921;49.368;11.068;2022-11-14T04:11:13;97692.22;;;2.46;100.00
3812;BME280;1921;49.368;11.068;2022-11-14T04:13:39;97680.22;;;2.03;100.00
3812;BME280;1921;49.368;11.068;2022-11-14T04:16:05;97692.84;;;1.51;100.00
3812;BME280;1921;49.368;11.068;2022-11-14T04:18:31;97611.94;;;1.23;100.00
3812;BME280;1921;49.368;11.068;2022-11-14T04:20:56;97636.34;;;1.40;100.00
3812;BME280;1921;49.368;11.068;2022-11-14T04:23:22;97637.28;;;1.39;100.00
3812;BME280;1921;49.368;11.068;2022-11-14T04:25:48;97659.66;;;1.59;100.00
3812;BME280;1921;49.368;11.068;2022-11-14T04:28:14;97520.84;;;0.73;100.00
3812;BME280;1921;49.368;11.068;2022-11-14T04:30:40;97648.75;;;1.67;100.00
3812;BME280;1921;49.368;11.068;2022-11-14T04:33:06;97661.25;;;1.83;100.00
3812;BME280;1921;49.368;11.068;2022-11-14T04:35:31;97687.00;;;2.04;100.00
3812;BME280;1921;49.368;11.068;2022-11-14T04:37:57;97663.84;;;2.04;100.00
3812;BME280;1921;49.368;11.068;2022-11-14T04:40:23;97606.50;;;1.92;100.00
3812;BME280;1921;49.368;11.068;2022-11-14T04:42:48;97622.97;;;2.01;100.00
3812;BME280;1921;49.368;11.068;2022-11-14T04:45:14;97586.31;;;1.87;100.00
3812;BME280;1921;49.368;11.068;2022-11-14T04:47:43;97658.69;;;2.36;100.00
3812;BME280;1921;49.368;11.068;2022-11-14T04:50:09;97610.06;;;2.12;100.00
3812;BME280;1921;49.368;11.068;2022-11-14T04:52:35;97675.78;;;2.58;100.00
3812;BME280;1921;49.368;11.068;2022-11-14T04:55:01;97646.25;;;2.41;100.00
3812;BME280;1921;49.368;11.068;2022-11-14T04:57:27;97542.41;;;1.79;100.00
3812;BME280;1921;49.368;11.068;2022-11-14T04:59:53;97627.00;;;2.35;100.00
3812;BME280;1921;49.368;11.068;2022-11-14T05:02:18;97653.25;;;2.50;100.00
3812;BME280;1921;49.368;11.068;2022-11-14T05:04:44;97701.16;;;2.83;100.00
3812;BME280;1921;49.368;11.068;2022-11-14T05:07:12;97640.50;;;2.49;100.00
3812;BME280;1921;49.368;11.068;2022-11-14T05:09:38;97663.59;;;2.60;100.00
3812;BME280;1921;49.368;11.068;2022-11-14T05:12:05;97653.44;;;2.58;100.00
3812;BME280;1921;49.368;11.068;2022-11-14T05:14:31;97638.75;;;2.49;100.00
3812;BME280;1921;49.368;11.068;2022-11-14T05:16:57;97630.09;;;2.50;100.00
3812;BME280;1921;49.368;11.068;2022-11-14T05:19:23;97641.19;;;2.51;100.00
3812;BME280;1921;49.368;11.068;2022-11-14T05:21:49;97626.00;;;2.48;100.00
3812;BME280;1921;49.368;11.068;2022-11-14T05:24:15;97704.84;;;2.90;100.00
3812;BME280;1921;49.368;11.068;2022-11-14T05:26:41;97644.00;;;2.48;100.00
3812;BME280;1921;49.368;11.068;2022-11-14T05:29:06;97689.44;;;2.79;100.00
3812;BME280;1921;49.368;11.068;2022-11-14T05:31:32;97677.72;;;2.65;100.00
3812;BME280;1921;49.368;11.068;2022-11-14T05:33:58;97681.56;;;2.71;100.00
3812;BME280;1921;49.368;11.068;2022-11-14T05:36:24;97688.09;;;2.75;100.00
3812;BME280;1921;49.368;11.068;2022-11-14T05:38:49;97640.16;;;2.42;100.00
3812;BME280;1921;49.368;11.068;2022-11-14T05:41:17;97691.66;;;2.63;100.00
3812;BME280;1921;49.368;11.068;2022-11-14T05:43:44;97667.97;;;2.48;100.00
3812;BME280;1921;49.368;11.068;2022-11-14T05:46:12;97599.78;;;2.12;100.00
3812;BME280;1921;49.368;11.068;2022-11-14T05:48:39;97660.34;;;2.37;100.00
3812;BME280;1921;49.368;11.068;2022-11-14T05:51:06;97684.69;;;2.54;100.00
3812;BME280;1921;49.368;11.068;2022-11-14T05:53:34;97668.16;;;2.35;100.00
3812;BME280;1921;49.368;11.068;2022-11-14T05:56:11;97676.84;;;2.55;100.00
3812;BME280;1921;49.368;11.068;2022-11-14T05:58:37;97701.41;;;2.80;100.00
3812;BME280;1921;49.368;11.068;2022-11-14T06:01:16;97666.88;;;2.62;100.00
3812;BME280;1921;49.368;11.068;2022-11-14T06:03:44;97644.28;;;2.45;100.00
3812;BME280;1921;49.368;11.068;2022-11-14T06:06:14;97647.91;;;2.42;100.00
3812;BME280;1921;49.368;11.068;2022-11-14T06:08:46;97598.25;;;2.09;100.00
3812;BME280;1921;49.368;11.068;2022-11-14T06:11:19;97685.41;;;2.56;100.00
3812;BME280;1921;49.368;11.068;2022-11-14T06:13:45;97569.63;;;1.82;100.00
3812;BME280;1921;49.368;11.068;2022-11-14T06:16:15;97590.47;;;1.68;100.00
3812;BME280;1921;49.368;11.068;2022-11-14T06:18:41;97684.19;;;2.60;100.00
3812;BME280;1921;49.368;11.068;2022-11-14T06:21:12;97734.28;;;2.97;100.00
3812;BME280;1921;49.368;11.068;2022-11-14T06:23:39;97673.66;;;2.63;100.00
3812;BME280;1921;49.368;11.068;2022-11-14T06:26:09;97689.03;;;2.74;100.00
3812;BME280;1921;49.368;11.068;2022-11-14T06:28:37;97703.22;;;2.89;100.00
3812;BME280;1921;49.368;11.068;2022-11-14T06:31:04;97729.06;;;3.09;100.00
3812;BME280;1921;49.368;11.068;2022-11-14T06:33:34;97696.59;;;2.96;100.00
3812;BME280;1921;49.368;11.068;2022-11-14T06:36:04;97700.75;;;3.09;100.00
3812;BME280;1921;49.368;11.068;2022-11-14T06:38:32;97551.09;;;2.20;100.00
3812;BME280;1921;49.368;11.068;2022-11-14T06:41:10;97726.69;;;3.47;100.00
3812;BME280;1921;49.368;11.068;2022-11-14T06:43:42;97604.59;;;2.68;100.00
3812;BME280;1921;49.368;11.068;2022-11-14T06:46:11;97329.34;;;0.93;100.00
3812;BME280;1921;49.368;11.068;2022-11-14T06:48:38;97593.69;;;2.55;100.00
3812;BME280;1921;49.368;11.068;2022-11-14T06:51:05;97576.59;;;2.54;100.00
3812;BME280;1921;49.368;11.068;2022-11-14T06:53:33;97501.22;;;2.11;100.00
3812;BME280;1921;49.368;11.068;2022-11-14T06:56:02;97502.88;;;2.22;100.00
3812;BME280;1921;49.368;11.068;2022-11-14T06:58:33;97483.03;;;2.03;100.00
3812;BME280;1921;49.368;11.068;2022-11-14T07:01:26;97597.41;;;2.72;100.00
3812;BME280;1921;49.368;11.068;2022-11-14T07:03:51;97700.50;;;3.42;100.00
3812;BME280;1921;49.368;11.068;2022-11-14T07:06:24;97596.28;;;2.95;100.00
3812;BME280;1921;49.368;11.068;2022-11-14T07:08:52;97643.50;;;3.45;100.00
3812;BME280;1921;49.368;11.068;2022-11-14T07:11:24;97549.63;;;2.88;100.00
3812;BME280;1921;49.368;11.068;2022-11-14T07:13:56;97759.75;;;4.23;100.00
3812;BME280;1921;49.368;11.068;2022-11-14T07:16:34;97658.22;;;3.55;100.00
3812;BME280;1921;49.368;11.068;2022-11-14T07:19:02;97713.94;;;3.96;100.00
3812;BME280;1921;49.368;11.068;2022-11-14T07:21:30;97706.34;;;3.94;100.00
3812;BME280;1921;49.368;11.068;2022-11-14T07:23:56;97738.41;;;4.21;100.00
3812;BME280;1921;49.368;11.068;2022-11-14T07:26:23;97609.47;;;3.51;100.00
3812;BME280;1921;49.368;11.068;2022-11-14T07:28:49;97703.78;;;4.04;100.00
3812;BME280;1921;49.368;11.068;2022-11-14T07:31:17;97528.69;;;3.12;100.00
3812;BME280;1921;49.368;11.068;2022-11-14T07:33:44;97727.28;;;4.20;100.00
3812;BME280;1921;49.368;11.068;2022-11-14T07:36:13;97708.28;;;4.31;100.00
3812;BME280;1921;49.368;11.068;2022-11-14T07:38:39;97758.28;;;4.69;100.00
3812;BME280;1921;49.368;11.068;2022-11-14T07:41:11;97741.03;;;4.79;100.00
3812;BME280;1921;49.368;11.068;2022-11-14T07:43:38;97812.22;;;5.30;100.00
3812;BME280;1921;49.368;11.068;2022-11-14T07:46:16;97796.00;;;5.47;100.00
3812;BME280;1921;49.368;11.068;2022-11-14T07:48:43;97647.72;;;4.82;100.00
3812;BME280;1921;49.368;11.068;2022-11-14T07:51:15;97729.19;;;5.43;100.00
3812;BME280;1921;49.368;11.068;2022-11-14T07:53:41;97699.69;;;5.35;100.00
3812;BME280;1921;49.368;11.068;2022-11-14T07:56:08;97739.03;;;5.66;100.00
3812;BME280;1921;49.368;11.068;2022-11-14T07:58:38;97701.88;;;5.58;100.00
3812;BME280;1921;49.368;11.068;2022-11-14T08:01:08;97723.31;;;5.78;100.00
3812;BME280;1921;49.368;11.068;2022-11-14T08:03:34;97738.38;;;5.92;100.00
3812;BME280;1921;49.368;11.068;2022-11-14T08:06:10;97719.38;;;6.01;100.00
3812;BME280;1921;49.368;11.068;2022-11-14T08:08:36;97726.09;;;6.22;100.00
3812;BME280;1921;49.368;11.068;2022-11-14T08:11:02;97737.78;;;6.43;100.00
3812;BME280;1921;49.368;11.068;2022-11-14T08:13:29;97734.81;;;6.56;100.00
3812;BME280;1921;49.368;11.068;2022-11-14T08:15:56;97765.84;;;6.84;99.20
3812;BME280;1921;49.368;11.068;2022-11-14T08:18:22;97711.22;;;6.59;98.59
3812;BME280;1921;49.368;11.068;2022-11-14T08:20:48;97681.69;;;6.52;97.97
3812;BME280;1921;49.368;11.068;2022-11-14T08:23:14;97692.47;;;6.65;96.32
3812;BME280;1921;49.368;11.068;2022-11-14T08:25:41;97694.97;;;6.57;96.64
3812;BME280;1921;49.368;11.068;2022-11-14T08:28:07;97725.38;;;6.91;97.14
3812;BME280;1921;49.368;11.068;2022-11-14T08:30:33;97676.56;;;6.86;96.91
3812;BME280;1921;49.368;11.068;2022-11-14T08:33:06;97669.94;;;6.84;95.09
3812;BME280;1921;49.368;11.068;2022-11-14T08:35:32;97696.97;;;7.33;95.49
3812;BME280;1921;49.368;11.068;2022-11-14T08:38:00;97699.88;;;7.72;93.46
3812;BME280;1921;49.368;11.068;2022-11-14T08:40:27;97681.88;;;7.71;92.33
3812;BME280;1921;49.368;11.068;2022-11-14T08:42:59;97705.81;;;8.07;91.16
3812;BME280;1921;49.368;11.068;2022-11-14T08:45:25;97718.41;;;8.44;92.20
3812;BME280;1921;49.368;11.068;2022-11-14T08:47:52;97662.97;;;8.19;87.84
3812;BME280;1921;49.368;11.068;2022-11-14T08:50:18;97668.25;;;8.52;87.66
3812;BME280;1921;49.368;11.068;2022-11-14T08:52:49;97734.47;;;9.29;87.98
3812;BME280;1921;49.368;11.068;2022-11-14T08:55:17;97721.81;;;9.74;84.79
3812;BME280;1921;49.368;11.068;2022-11-14T08:57:43;97601.63;;;9.54;82.59
3812;BME280;1921;49.368;11.068;2022-11-14T09:00:09;97711.56;;;10.03;80.89
3812;BME280;1921;49.368;11.068;2022-11-14T09:02:35;97728.88;;;10.81;78.91
3812;BME280;1921;49.368;11.068;2022-11-14T09:05:01;97690.50;;;11.19;75.82
3812;BME280;1921;49.368;11.068;2022-11-14T09:07:27;97670.75;;;11.76;72.19
3812;BME280;1921;49.368;11.068;2022-11-14T09:09:53;97681.28;;;11.97;67.42
3812;BME280;1921;49.368;11.068;2022-11-14T09:12:19;97690.38;;;12.23;67.36
3812;BME280;1921;49.368;11.068;2022-11-14T09:14:44;97686.50;;;13.04;65.74
3812;BME280;1921;49.368;11.068;2022-11-14T09:17:10;97705.19;;;13.57;63.15
3812;BME280;1921;49.368;11.068;2022-11-14T09:19:36;97721.69;;;13.92;63.87
3812;BME280;1921;49.368;11.068;2022-11-14T09:22:02;97683.03;;;14.21;62.75
3812;BME280;1921;49.368;11.068;2022-11-14T09:24:27;97664.16;;;14.98;54.93
3812;BME280;1921;49.368;11.068;2022-11-14T09:26:53;97664.66;;;15.40;52.80
3812;BME280;1921;49.368;11.068;2022-11-14T09:29:20;97704.56;;;15.95;52.89
3812;BME280;1921;49.368;11.068;2022-11-14T09:31:46;97711.81;;;16.00;52.20
3812;BME280;1921;49.368;11.068;2022-11-14T09:34:11;97671.63;;;15.86;52.29
3812;BME280;1921;49.368;11.068;2022-11-14T09:36:38;97672.75;;;16.03;52.61
3812;BME280;1921;49.368;11.068;2022-11-14T09:39:04;97689.69;;;16.46;51.66
3812;BME280;1921;49.368;11.068;2022-11-14T09:45:04;97694.63;;;16.74;51.15
3812;BME280;1921;49.368;11.068;2022-11-14T09:47:47;97663.88;;;16.92;48.85
3812;BME280;1921;49.368;11.068;2022-11-14T09:50:27;97725.94;;;17.75;48.21
3812;BME280;1921;49.368;11.068;2022-11-14T09:52:56;97701.47;;;17.86;47.64
3812;BME280;1921;49.368;11.068;2022-11-14T09:55:28;97681.38;;;17.67;46.41
3812;BME280;1921;49.368;11.068;2022-11-14T09:57:55;97693.78;;;17.23;47.42
3812;BME280;1921;49.368;11.068;2022-11-14T10:01:05;97686.41;;;17.50;46.58
3812;BME280;1921;49.368;11.068;2022-11-14T10:09:23;97724.94;;;18.85;45.26
3812;BME280;1921;49.368;11.068;2022-11-14T10:12:12;97721.53;;;19.07;44.94
3812;BME280;1921;49.368;11.068;2022-11-14T10:15:11;97697.59;;;19.37;44.36
3812;BME280;1921;49.368;11.068;2022-11-14T10:20:54;97724.69;;;18.86;43.55
3812;BME280;1921;49.368;11.068;2022-11-14T10:24:35;97737.75;;;18.69;43.85
3812;BME280;1921;49.368;11.068;2022-11-14T10:26:44;97728.03;;;17.66;46.69
3812;BME280;1921;49.368;11.068;2022-11-14T10:35:20;97683.44;;;16.78;46.97
3812;BME280;1921;49.368;11.068;2022-11-14T10:38:14;97748.94;;;17.00;48.07
3812;BME280;1921;49.368;11.068;2022-11-14T10:40:47;97682.19;;;16.81;48.00
3812;BME280;1921;49.368;11.068;2022-11-14T10:43:39;97693.72;;;16.55;48.63
3812;BME280;1921;49.368;11.068;2022-11-14T10:46:21;97731.50;;;16.99;47.49
3812;BME280;1921;49.368;11.068;2022-11-14T10:48:51;97708.38;;;17.01;48.07
3812;BME280;1921;49.368;11.068;2022-11-14T10:52:00;97743.34;;;16.89;48.22
3812;BME280;1921;49.368;11.068;2022-11-14T10:54:45;97748.16;;;17.42;47.63
3812;BME280;1921;49.368;11.068;2022-11-14T10:57:17;97692.50;;;17.69;46.29
3812;BME280;1921;49.368;11.068;2022-11-14T10:59:43;97744.78;;;17.97;45.16
3812;BME280;1921;49.368;11.068;2022-11-14T11:02:09;97701.53;;;17.80;45.70
3812;BME280;1921;49.368;11.068;2022-11-14T11:04:39;97680.59;;;17.85;45.51
3812;BME280;1921;49.368;11.068;2022-11-14T11:09:38;97721.34;;;18.79;43.80
3812;BME280;1921;49.368;11.068;2022-11-14T11:15:27;97705.47;;;18.37;44.44
3812;BME280;1921;49.368;11.068;2022-11-14T11:18:24;97694.25;;;18.72;43.95
3812;BME280;1921;49.368;11.068;2022-11-14T11:23:28;97678.50;;;18.77;43.19
3812;BME280;1921;49.368;11.068;2022-11-14T11:26:20;97647.72;;;18.29;43.43
3812;BME280;1921;49.368;11.068;2022-11-14T11:29:03;97696.34;;;19.05;43.62
3812;BME280;1921;49.368;11.068;2022-11-14T11:31:50;97730.03;;;19.21;43.93
3812;BME280;1921;49.368;11.068;2022-11-14T11:34:27;97677.16;;;19.21;43.26
3812;BME280;1921;49.368;11.068;2022-11-14T11:37:37;97610.84;;;18.99;41.85
3812;BME280;1921;49.368;11.068;2022-11-14T11:40:13;97712.91;;;19.47;42.93
3812;BME280;1921;49.368;11.068;2022-11-14T11:45:21;97712.72;;;18.72;44.04
3812;BME280;1921;49.368;11.068;2022-11-14T11:48:17;97708.75;;;18.51;44.43
3812;BME280;1921;49.368;11.068;2022-11-14T11:50:43;97709.28;;;18.41;44.43
3812;BME280;1921;49.368;11.068;2022-11-14T11:53:21;97744.13;;;18.20;45.49
3812;BME280;1921;49.368;11.068;2022-11-14T11:55:52;97721.16;;;17.65;46.76
3812;BME280;1921;49.368;11.068;2022-11-14T11:58:32;97715.03;;;17.28;47.66
3812;BME280;1921;49.368;11.068;2022-11-14T12:01:00;97714.84;;;17.05;48.64
3812;BME280;1921;49.368;11.068;2022-11-14T12:03:25;97712.84;;;17.00;48.99
3812;BME280;1921;49.368;11.068;2022-11-14T12:09:22;97736.44;;;16.88;49.91
3812;BME280;1921;49.368;11.068;2022-11-14T12:12:08;97734.19;;;16.92;50.35
3812;BME280;1921;49.368;11.068;2022-11-14T12:27:12;97697.28;;;16.67;50.57
3812;BME280;1921;49.368;11.068;2022-11-14T12:30:13;97708.38;;;16.76;51.61
3812;BME280;1921;49.368;11.068;2022-11-14T12:33:02;97673.50;;;16.17;53.00
3812;BME280;1921;49.368;11.068;2022-11-14T12:35:33;97657.03;;;16.28;53.01
3812;BME280;1921;49.368;11.068;2022-11-14T12:38:03;97675.63;;;16.65;52.34
3812;BME280;1921;49.368;11.068;2022-11-14T12:40:37;97670.69;;;16.75;52.37
3812;BME280;1921;49.368;11.068;2022-11-14T12:48:33;97667.47;;;17.60;49.21
3812;BME280;1921;49.368;11.068;2022-11-14T12:51:00;97671.41;;;17.87;48.22
3812;BME280;1921;49.368;11.068;2022-11-14T13:07:57;97711.25;;;18.16;48.26
3812;BME280;1921;49.368;11.068;2022-11-14T13:10:33;97707.97;;;18.32;48.18
3812;BME280;1921;49.368;11.068;2022-11-14T13:13:08;97666.75;;;18.01;47.39
3812;BME280;1921;49.368;11.068;2022-11-14T13:16:00;97708.09;;;18.07;47.63
3812;BME280;1921;49.368;11.068;2022-11-14T13:19:29;97641.56;;;17.13;49.05
3812;BME280;1921;49.368;11.068;2022-11-14T13:27:34;97642.69;;;16.24;52.57
3812;BME280;1921;49.368;11.068;2022-11-14T13:30:05;97628.41;;;16.07;52.90
3812;BME280;1921;49.368;11.068;2022-11-14T13:35:30;97592.22;;;15.57;53.69
3812;BME280;1921;49.368;11.068;2022-11-14T13:38:30;97680.56;;;15.78;55.16
3812;BME280;1921;49.368;11.068;2022-11-14T13:46:46;97676.66;;;15.87;55.33
3812;BME280;1921;49.368;11.068;2022-11-14T13:52:04;97667.88;;;15.49;56.95
3812;BME280;1921;49.368;11.068;2022-11-14T13:54:30;97638.78;;;15.44;56.44
3812;BME280;1921;49.368;11.068;2022-11-14T14:00:25;97539.88;;;15.11;55.05
3812;BME280;1921;49.368;11.068;2022-11-14T14:03:12;97677.44;;;15.95;55.19
3812;BME280;1921;49.368;11.068;2022-11-14T14:06:18;97669.28;;;15.65;55.86
3812;BME280;1921;49.368;11.068;2022-11-14T14:09:36;97663.84;;;15.46;56.77
3812;BME280;1921;49.368;11.068;2022-11-14T14:15:33;97639.50;;;14.93;58.80
3812;BME280;1921;49.368;11.068;2022-11-14T14:19:26;97654.25;;;14.74;59.23
3812;BME280;1921;49.368;11.068;2022-11-14T14:21:57;97654.63;;;14.38;60.82
3812;BME280;1921;49.368;11.068;2022-11-14T14:30:19;97637.13;;;13.77;62.42
3812;BME280;1921;49.368;11.068;2022-11-14T14:33:11;97605.50;;;13.31;63.64
3812;BME280;1921;49.368;11.068;2022-11-14T14:35:48;97621.84;;;13.39;63.66
3812;BME280;1921;49.368;11.068;2022-11-14T14:38:26;97630.50;;;13.40;63.98
3812;BME280;1921;49.368;11.068;2022-11-14T14:40:56;97628.88;;;13.32;64.71
3812;BME280;1921;49.368;11.068;2022-11-14T14:43:32;97610.41;;;13.12;64.54
3812;BME280;1921;49.368;11.068;2022-11-14T14:45:58;97609.00;;;13.16;64.62
3812;BME280;1921;49.368;11.068;2022-11-14T14:48:28;97599.25;;;13.04;65.11
3812;BME280;1921;49.368;11.068;2022-11-14T14:50:57;97634.31;;;13.31;65.53
3812;BME280;1921;49.368;11.068;2022-11-14T14:53:27;97598.28;;;13.05;65.68
3812;BME280;1921;49.368;11.068;2022-11-14T14:56:04;97635.31;;;13.30;65.30
3812;BME280;1921;49.368;11.068;2022-11-14T14:58:33;97586.34;;;12.96;65.95
3812;BME280;1921;49.368;11.068;2022-11-14T15:01:17;97573.09;;;13.04;66.62
3812;BME280;1921;49.368;11.068;2022-11-14T15:04:07;97593.28;;;13.16;65.74
3812;BME280;1921;49.368;11.068;2022-11-14T15:06:38;97580.56;;;13.07;66.37